sensor_id;sensor_type;location;lat;lon;timestamp;P1;durP1;ratioP1;P2;durP2;ratioP2
71965;SDS011;59836;52.132;5.442;2023-06-14T00:00:40;5.50;;;2.42;;
71965;SDS011;59836;52.132;5.442;2023-06-14T00:03:10;4.80;;;2.35;;
71965;SDS011;59836;52.132;5.442;2023-06-14T00:05:38;3.70;;;2.20;;
71965;SDS011;59836;52.132;5.442;2023-06-14T00:08:07;4.00;;;2.50;;
71965;SDS011;59836;52.132;5.442;2023-06-14T00:10:34;3.80;;;2.58;;
71965;SDS011;59836;52.132;5.442;2023-06-14T00:13:02;7.50;;;2.45;;
71965;SDS011;59836;52.132;5.442;2023-06-14T00:15:33;4.00;;;2.08;;
71965;SDS011;59836;52.132;5.442;2023-06-14T00:18:00;4.95;;;2.45;;
71965;SDS011;59836;52.132;5.442;2023-06-14T00:20:28;3.77;;;2.17;;
71965;SDS011;59836;52.132;5.442;2023-06-14T00:22:57;5.18;;;2.28;;
71965;SDS011;59836;52.132;5.442;2023-06-14T00:25:24;4.95;;;2.30;;
71965;SDS011;59836;52.132;5.442;2023-06-14T00:27:57;4.90;;;2.20;;
71965;SDS011;59836;52.132;5.442;2023-06-14T00:30:24;5.93;;;2.40;;
71965;SDS011;59836;52.132;5.442;2023-06-14T00:32:51;4.70;;;2.47;;
71965;SDS011;59836;52.132;5.442;2023-06-14T00:35:18;4.25;;;2.28;;
71965;SDS011;59836;52.132;5.442;2023-06-14T00:37:44;3.45;;;2.45;;
71965;SDS011;59836;52.132;5.442;2023-06-14T00:40:11;7.13;;;2.28;;
71965;SDS011;59836;52.132;5.442;2023-06-14T00:42:37;4.38;;;2.40;;
71965;SDS011;59836;52.132;5.442;2023-06-14T00:45:04;2.70;;;2.10;;
71965;SDS011;59836;52.132;5.442;2023-06-14T00:47:31;4.55;;;2.03;;
71965;SDS011;59836;52.132;5.442;2023-06-14T00:49:58;5.25;;;2.50;;
71965;SDS011;59836;52.132;5.442;2023-06-14T00:52:26;3.80;;;2.40;;
71965;SDS011;59836;52.132;5.442;2023-06-14T00:54:53;5.57;;;2.33;;
71965;SDS011;59836;52.132;5.442;2023-06-14T00:57:20;4.67;;;2.57;;
71965;SDS011;59836;52.132;5.442;2023-06-14T00:59:47;4.28;;;2.28;;
71965;SDS011;59836;52.132;5.442;2023-06-14T01:02:15;5.32;;;2.28;;
71965;SDS011;59836;52.132;5.442;2023-06-14T01:04:45;5.30;;;2.05;;
71965;SDS011;59836;52.132;5.442;2023-06-14T01:10:11;4.20;;;2.23;;
71965;SDS011;59836;52.132;5.442;2023-06-14T01:15:20;4.60;;;2.22;;
71965;SDS011;59836;52.132;5.442;2023-06-14T01:17:48;4.78;;;2.28;;
71965;SDS011;59836;52.132;5.442;2023-06-14T01:20:19;8.85;;;3.92;;
71965;SDS011;59836;52.132;5.442;2023-06-14T01:22:53;5.20;;;2.10;;
71965;SDS011;59836;52.132;5.442;2023-06-14T01:25:20;7.53;;;2.35;;
71965;SDS011;59836;52.132;5.442;2023-06-14T01:28:10;4.65;;;2.10;;
71965;SDS011;59836;52.132;5.442;2023-06-14T01:30:38;4.25;;;1.85;;
71965;SDS011;59836;52.132;5.442;2023-06-14T01:33:12;4.25;;;2.30;;
71965;SDS011;59836;52.132;5.442;2023-06-14T01:35:44;3.90;;;2.43;;
71965;SDS011;59836;52.132;5.442;2023-06-14T01:38:12;4.15;;;2.50;;
71965;SDS011;59836;52.132;5.442;2023-06-14T01:40:40;4.15;;;2.38;;
71965;SDS011;59836;52.132;5.442;2023-06-14T01:43:08;5.68;;;2.15;;
71965;SDS011;59836;52.132;5.442;2023-06-14T01:45:37;6.95;;;2.88;;
71965;SDS011;59836;52.132;5.442;2023-06-14T01:48:05;4.07;;;2.00;;
71965;SDS011;59836;52.132;5.442;2023-06-14T01:50:32;4.68;;;2.38;;
71965;SDS011;59836;52.132;5.442;2023-06-14T01:52:59;5.10;;;2.50;;
71965;SDS011;59836;52.132;5.442;2023-06-14T01:55:25;6.53;;;2.92;;
71965;SDS011;59836;52.132;5.442;2023-06-14T01:57:52;4.78;;;2.45;;
71965;SDS011;59836;52.132;5.442;2023-06-14T02:00:20;5.23;;;2.60;;
71965;SDS011;59836;52.132;5.442;2023-06-14T02:02:47;4.38;;;2.08;;
71965;SDS011;59836;52.132;5.442;2023-06-14T02:05:15;4.60;;;2.53;;
71965;SDS011;59836;52.132;5.442;2023-06-14T02:07:45;6.05;;;2.42;;
71965;SDS011;59836;52.132;5.442;2023-06-14T02:10:12;4.88;;;2.40;;
71965;SDS011;59836;52.132;5.442;2023-06-14T02:12:40;6.37;;;2.50;;
71965;SDS011;59836;52.132;5.442;2023-06-14T02:15:07;3.40;;;1.98;;
71965;SDS011;59836;52.132;5.442;2023-06-14T02:17:34;4.47;;;2.60;;
71965;SDS011;59836;52.132;5.442;2023-06-14T02:20:01;4.45;;;2.58;;
71965;SDS011;59836;52.132;5.442;2023-06-14T02:22:29;3.90;;;2.38;;
71965;SDS011;59836;52.132;5.442;2023-06-14T02:24:55;4.33;;;2.30;;
71965;SDS011;59836;52.132;5.442;2023-06-14T02:27:28;5.57;;;2.63;;
71965;SDS011;59836;52.132;5.442;2023-06-14T02:29:54;3.22;;;2.25;;
71965;SDS011;59836;52.132;5.442;2023-06-14T02:32:20;3.42;;;2.40;;
71965;SDS011;59836;52.132;5.442;2023-06-14T02:34:47;4.20;;;2.47;;
71965;SDS011;59836;52.132;5.442;2023-06-14T02:37:16;3.13;;;2.40;;
71965;SDS011;59836;52.132;5.442;2023-06-14T02:39:42;3.58;;;1.95;;
71965;SDS011;59836;52.132;5.442;2023-06-14T02:42:09;7.63;;;2.72;;
71965;SDS011;59836;52.132;5.442;2023-06-14T02:44:36;4.50;;;2.70;;
71965;SDS011;59836;52.132;5.442;2023-06-14T02:47:03;3.55;;;2.08;;
71965;SDS011;59836;52.132;5.442;2023-06-14T02:49:31;5.27;;;2.60;;
71965;SDS011;59836;52.132;5.442;2023-06-14T02:51:57;5.70;;;3.03;;
71965;SDS011;59836;52.132;5.442;2023-06-14T02:54:24;4.25;;;2.63;;
71965;SDS011;59836;52.132;5.442;2023-06-14T02:56:50;4.90;;;2.30;;
71965;SDS011;59836;52.132;5.442;2023-06-14T02:59:17;3.22;;;2.10;;
71965;SDS011;59836;52.132;5.442;2023-06-14T03:01:43;6.60;;;2.17;;
71965;SDS011;59836;52.132;5.442;2023-06-14T03:04:09;5.65;;;1.77;;
71965;SDS011;59836;52.132;5.442;2023-06-14T03:06:36;5.65;;;2.35;;
71965;SDS011;59836;52.132;5.442;2023-06-14T03:09:03;4.68;;;2.13;;
71965;SDS011;59836;52.132;5.442;2023-06-14T03:11:35;4.57;;;2.33;;
71965;SDS011;59836;52.132;5.442;2023-06-14T03:14:02;3.27;;;1.97;;
71965;SDS011;59836;52.132;5.442;2023-06-14T03:16:30;4.28;;;2.05;;
71965;SDS011;59836;52.132;5.442;2023-06-14T03:18:57;3.92;;;2.30;;
71965;SDS011;59836;52.132;5.442;2023-06-14T03:21:24;5.15;;;2.28;;
71965;SDS011;59836;52.132;5.442;2023-06-14T03:23:52;3.38;;;2.10;;
71965;SDS011;59836;52.132;5.442;2023-06-14T03:26:19;7.23;;;3.47;;
71965;SDS011;59836;52.132;5.442;2023-06-14T03:28:46;5.85;;;2.25;;
71965;SDS011;59836;52.132;5.442;2023-06-14T03:31:13;3.40;;;2.35;;
71965;SDS011;59836;52.132;5.442;2023-06-14T03:33:40;3.03;;;2.13;;
71965;SDS011;59836;52.132;5.442;2023-06-14T03:36:06;3.20;;;2.40;;
71965;SDS011;59836;52.132;5.442;2023-06-14T03:38:33;4.97;;;2.40;;
71965;SDS011;59836;52.132;5.442;2023-06-14T03:40:59;5.22;;;2.17;;
71965;SDS011;59836;52.132;5.442;2023-06-14T03:43:27;3.88;;;2.05;;
71965;SDS011;59836;52.132;5.442;2023-06-14T03:45:53;5.93;;;2.10;;
71965;SDS011;59836;52.132;5.442;2023-06-14T03:48:20;4.13;;;2.22;;
71965;SDS011;59836;52.132;5.442;2023-06-14T03:50:46;7.30;;;2.13;;
71965;SDS011;59836;52.132;5.442;2023-06-14T03:53:13;5.72;;;2.10;;
71965;SDS011;59836;52.132;5.442;2023-06-14T03:55:40;4.53;;;2.35;;
71965;SDS011;59836;52.132;5.442;2023-06-14T03:58:10;4.22;;;1.92;;
71965;SDS011;59836;52.132;5.442;2023-06-14T04:00:36;3.33;;;2.38;;
71965;SDS011;59836;52.132;5.442;2023-06-14T04:03:03;7.43;;;2.20;;
71965;SDS011;59836;52.132;5.442;2023-06-14T04:05:31;4.22;;;2.00;;
71965;SDS011;59836;52.132;5.442;2023-06-14T04:07:58;4.70;;;2.15;;
71965;SDS011;59836;52.132;5.442;2023-06-14T04:10:25;6.28;;;2.25;;
71965;SDS011;59836;52.132;5.442;2023-06-14T04:12:51;5.93;;;2.17;;
71965;SDS011;59836;52.132;5.442;2023-06-14T04:15:18;6.67;;;2.43;;
71965;SDS011;59836;52.132;5.442;2023-06-14T04:17:47;5.30;;;1.95;;
71965;SDS011;59836;52.132;5.442;2023-06-14T04:20:14;4.45;;;2.50;;
71965;SDS011;59836;52.132;5.442;2023-06-14T04:22:40;5.63;;;2.30;;
71965;SDS011;59836;52.132;5.442;2023-06-14T04:25:07;5.72;;;2.25;;
71965;SDS011;59836;52.132;5.442;2023-06-14T04:27:34;3.73;;;2.30;;
71965;SDS011;59836;52.132;5.442;2023-06-14T04:30:02;4.30;;;2.13;;
71965;SDS011;59836;52.132;5.442;2023-06-14T04:32:29;5.50;;;2.65;;
71965;SDS011;59836;52.132;5.442;2023-06-14T04:35:00;5.72;;;2.78;;
71965;SDS011;59836;52.132;5.442;2023-06-14T04:37:28;5.63;;;2.47;;
71965;SDS011;59836;52.132;5.442;2023-06-14T04:39:56;4.57;;;2.40;;
71965;SDS011;59836;52.132;5.442;2023-06-14T04:42:23;5.47;;;2.22;;
71965;SDS011;59836;52.132;5.442;2023-06-14T04:44:57;9.32;;;2.40;;
71965;SDS011;59836;52.132;5.442;2023-06-14T04:47:23;5.40;;;2.33;;
71965;SDS011;59836;52.132;5.442;2023-06-14T04:49:58;6.50;;;2.72;;
71965;SDS011;59836;52.132;5.442;2023-06-14T04:52:26;4.87;;;2.20;;
71965;SDS011;59836;52.132;5.442;2023-06-14T04:54:53;5.18;;;2.60;;
71965;SDS011;59836;52.132;5.442;2023-06-14T04:57:20;5.68;;;2.22;;
71965;SDS011;59836;52.132;5.442;2023-06-14T04:59:48;3.10;;;2.17;;
71965;SDS011;59836;52.132;5.442;2023-06-14T05:02:21;4.95;;;2.50;;
71965;SDS011;59836;52.132;5.442;2023-06-14T05:04:49;9.03;;;2.37;;
71965;SDS011;59836;52.132;5.442;2023-06-14T05:07:16;2.85;;;2.33;;
71965;SDS011;59836;52.132;5.442;2023-06-14T05:09:44;3.72;;;2.60;;
71965;SDS011;59836;52.132;5.442;2023-06-14T05:12:11;7.30;;;2.00;;
71965;SDS011;59836;52.132;5.442;2023-06-14T05:14:37;5.30;;;3.13;;
71965;SDS011;59836;52.132;5.442;2023-06-14T05:17:04;3.30;;;2.37;;
71965;SDS011;59836;52.132;5.442;2023-06-14T05:19:31;5.30;;;2.30;;
71965;SDS011;59836;52.132;5.442;2023-06-14T05:21:57;4.60;;;2.70;;
71965;SDS011;59836;52.132;5.442;2023-06-14T05:24:24;4.35;;;2.30;;
71965;SDS011;59836;52.132;5.442;2023-06-14T05:26:50;4.18;;;2.55;;
71965;SDS011;59836;52.132;5.442;2023-06-14T05:29:17;4.93;;;1.80;;
71965;SDS011;59836;52.132;5.442;2023-06-14T05:31:43;6.07;;;2.55;;
71965;SDS011;59836;52.132;5.442;2023-06-14T05:34:10;3.15;;;2.20;;
71965;SDS011;59836;52.132;5.442;2023-06-14T05:36:37;4.25;;;2.20;;
71965;SDS011;59836;52.132;5.442;2023-06-14T05:39:04;3.67;;;2.53;;
71965;SDS011;59836;52.132;5.442;2023-06-14T05:41:31;4.23;;;2.50;;
71965;SDS011;59836;52.132;5.442;2023-06-14T05:43:58;2.92;;;2.35;;
71965;SDS011;59836;52.132;5.442;2023-06-14T05:46:26;2.90;;;2.05;;
71965;SDS011;59836;52.132;5.442;2023-06-14T05:48:53;4.80;;;2.38;;
71965;SDS011;59836;52.132;5.442;2023-06-14T05:51:20;4.10;;;2.13;;
71965;SDS011;59836;52.132;5.442;2023-06-14T05:53:46;3.47;;;2.13;;
71965;SDS011;59836;52.132;5.442;2023-06-14T05:56:15;5.93;;;2.38;;
71965;SDS011;59836;52.132;5.442;2023-06-14T05:58:44;4.72;;;1.92;;
71965;SDS011;59836;52.132;5.442;2023-06-14T06:01:11;4.30;;;2.22;;
71965;SDS011;59836;52.132;5.442;2023-06-14T06:03:37;4.57;;;2.17;;
71965;SDS011;59836;52.132;5.442;2023-06-14T06:06:04;6.47;;;2.20;;
71965;SDS011;59836;52.132;5.442;2023-06-14T06:08:31;5.47;;;2.30;;
71965;SDS011;59836;52.132;5.442;2023-06-14T06:10:58;6.43;;;2.80;;
71965;SDS011;59836;52.132;5.442;2023-06-14T06:13:26;3.60;;;2.35;;
71965;SDS011;59836;52.132;5.442;2023-06-14T06:15:52;5.15;;;2.35;;
71965;SDS011;59836;52.132;5.442;2023-06-14T06:18:19;4.07;;;2.43;;
71965;SDS011;59836;52.132;5.442;2023-06-14T06:20:45;5.82;;;2.03;;
71965;SDS011;59836;52.132;5.442;2023-06-14T06:23:13;4.80;;;2.75;;
71965;SDS011;59836;52.132;5.442;2023-06-14T06:25:39;3.17;;;2.35;;
71965;SDS011;59836;52.132;5.442;2023-06-14T06:28:06;5.18;;;2.50;;
71965;SDS011;59836;52.132;5.442;2023-06-14T06:30:32;6.10;;;2.03;;
71965;SDS011;59836;52.132;5.442;2023-06-14T06:32:59;3.45;;;2.35;;
71965;SDS011;59836;52.132;5.442;2023-06-14T06:35:26;3.88;;;2.60;;
71965;SDS011;59836;52.132;5.442;2023-06-14T06:37:52;4.53;;;2.53;;
71965;SDS011;59836;52.132;5.442;2023-06-14T06:40:19;4.47;;;2.40;;
71965;SDS011;59836;52.132;5.442;2023-06-14T06:42:45;4.47;;;2.13;;
71965;SDS011;59836;52.132;5.442;2023-06-14T06:45:12;4.15;;;2.67;;
71965;SDS011;59836;52.132;5.442;2023-06-14T06:47:39;5.18;;;2.72;;
71965;SDS011;59836;52.132;5.442;2023-06-14T06:50:05;3.92;;;2.80;;
71965;SDS011;59836;52.132;5.442;2023-06-14T06:52:33;8.00;;;2.95;;
71965;SDS011;59836;52.132;5.442;2023-06-14T06:55:00;3.30;;;2.50;;
71965;SDS011;59836;52.132;5.442;2023-06-14T06:57:26;6.45;;;2.60;;
71965;SDS011;59836;52.132;5.442;2023-06-14T06:59:55;4.53;;;2.50;;
71965;SDS011;59836;52.132;5.442;2023-06-14T07:02:21;3.47;;;2.30;;
71965;SDS011;59836;52.132;5.442;2023-06-14T07:04:48;4.10;;;2.28;;
71965;SDS011;59836;52.132;5.442;2023-06-14T07:07:14;4.20;;;2.30;;
71965;SDS011;59836;52.132;5.442;2023-06-14T07:09:41;3.85;;;2.38;;
71965;SDS011;59836;52.132;5.442;2023-06-14T07:12:08;5.45;;;2.65;;
71965;SDS011;59836;52.132;5.442;2023-06-14T07:14:35;3.60;;;2.42;;
71965;SDS011;59836;52.132;5.442;2023-06-14T07:17:01;3.72;;;2.13;;
71965;SDS011;59836;52.132;5.442;2023-06-14T07:19:28;4.73;;;2.50;;
71965;SDS011;59836;52.132;5.442;2023-06-14T07:21:54;6.63;;;2.53;;
71965;SDS011;59836;52.132;5.442;2023-06-14T07:24:21;5.00;;;2.45;;
71965;SDS011;59836;52.132;5.442;2023-06-14T07:26:47;4.50;;;2.60;;
71965;SDS011;59836;52.132;5.442;2023-06-14T07:29:15;2.95;;;2.10;;
71965;SDS011;59836;52.132;5.442;2023-06-14T07:31:42;3.83;;;2.20;;
71965;SDS011;59836;52.132;5.442;2023-06-14T07:34:09;3.88;;;2.13;;
71965;SDS011;59836;52.132;5.442;2023-06-14T07:36:35;3.05;;;2.33;;
71965;SDS011;59836;52.132;5.442;2023-06-14T07:39:03;4.28;;;2.50;;
71965;SDS011;59836;52.132;5.442;2023-06-14T07:41:32;5.35;;;2.10;;
71965;SDS011;59836;52.132;5.442;2023-06-14T07:43:59;5.10;;;1.90;;
71965;SDS011;59836;52.132;5.442;2023-06-14T07:46:25;3.42;;;2.10;;
71965;SDS011;59836;52.132;5.442;2023-06-14T07:48:51;2.97;;;1.83;;
71965;SDS011;59836;52.132;5.442;2023-06-14T07:51:18;3.80;;;2.17;;
71965;SDS011;59836;52.132;5.442;2023-06-14T07:53:45;4.13;;;1.92;;
71965;SDS011;59836;52.132;5.442;2023-06-14T07:56:12;3.77;;;2.00;;
71965;SDS011;59836;52.132;5.442;2023-06-14T07:58:38;4.57;;;1.90;;
71965;SDS011;59836;52.132;5.442;2023-06-14T08:01:05;3.65;;;1.90;;
71965;SDS011;59836;52.132;5.442;2023-06-14T08:03:34;2.08;;;1.83;;
71965;SDS011;59836;52.132;5.442;2023-06-14T08:06:01;2.45;;;1.92;;
71965;SDS011;59836;52.132;5.442;2023-06-14T08:08:27;2.70;;;1.73;;
71965;SDS011;59836;52.132;5.442;2023-06-14T08:10:54;4.50;;;1.50;;
71965;SDS011;59836;52.132;5.442;2023-06-14T08:13:21;2.75;;;1.60;;
71965;SDS011;59836;52.132;5.442;2023-06-14T08:15:47;2.90;;;1.63;;
71965;SDS011;59836;52.132;5.442;2023-06-14T08:18:14;4.30;;;1.70;;
71965;SDS011;59836;52.132;5.442;2023-06-14T08:20:41;1.60;;;1.17;;
71965;SDS011;59836;52.132;5.442;2023-06-14T08:23:07;2.78;;;1.75;;
71965;SDS011;59836;52.132;5.442;2023-06-14T08:25:35;3.50;;;1.55;;
71965;SDS011;59836;52.132;5.442;2023-06-14T08:28:01;4.03;;;1.60;;
71965;SDS011;59836;52.132;5.442;2023-06-14T08:30:28;2.35;;;1.55;;
71965;SDS011;59836;52.132;5.442;2023-06-14T08:32:54;3.63;;;1.70;;
71965;SDS011;59836;52.132;5.442;2023-06-14T08:35:40;1.95;;;1.50;;
71965;SDS011;59836;52.132;5.442;2023-06-14T08:38:07;4.93;;;1.30;;
71965;SDS011;59836;52.132;5.442;2023-06-14T08:40:33;4.50;;;1.40;;
71965;SDS011;59836;52.132;5.442;2023-06-14T08:43:03;2.88;;;1.40;;
71965;SDS011;59836;52.132;5.442;2023-06-14T08:45:29;3.23;;;1.53;;
71965;SDS011;59836;52.132;5.442;2023-06-14T08:47:58;4.07;;;1.40;;
71965;SDS011;59836;52.132;5.442;2023-06-14T08:50:26;2.50;;;1.52;;
71965;SDS011;59836;52.132;5.442;2023-06-14T08:52:57;2.70;;;1.33;;
71965;SDS011;59836;52.132;5.442;2023-06-14T08:55:30;2.53;;;1.33;;
71965;SDS011;59836;52.132;5.442;2023-06-14T08:58:02;3.17;;;1.13;;
71965;SDS011;59836;52.132;5.442;2023-06-14T09:00:31;2.03;;;1.23;;
71965;SDS011;59836;52.132;5.442;2023-06-14T09:02:59;2.60;;;1.10;;
71965;SDS011;59836;52.132;5.442;2023-06-14T09:05:26;2.83;;;1.38;;
71965;SDS011;59836;52.132;5.442;2023-06-14T09:07:54;2.03;;;1.30;;
71965;SDS011;59836;52.132;5.442;2023-06-14T09:10:21;1.50;;;1.20;;
71965;SDS011;59836;52.132;5.442;2023-06-14T09:12:48;2.33;;;1.23;;
71965;SDS011;59836;52.132;5.442;2023-06-14T09:15:15;3.00;;;1.10;;
71965;SDS011;59836;52.132;5.442;2023-06-14T09:17:42;2.75;;;1.48;;
71965;SDS011;59836;52.132;5.442;2023-06-14T09:20:08;2.28;;;1.33;;
71965;SDS011;59836;52.132;5.442;2023-06-14T09:22:37;2.37;;;1.10;;
71965;SDS011;59836;52.132;5.442;2023-06-14T09:25:04;2.80;;;1.38;;
71965;SDS011;59836;52.132;5.442;2023-06-14T09:27:32;4.70;;;1.50;;
71965;SDS011;59836;52.132;5.442;2023-06-14T09:30:02;1.60;;;1.30;;
71965;SDS011;59836;52.132;5.442;2023-06-14T09:32:30;2.40;;;1.17;;
71965;SDS011;59836;52.132;5.442;2023-06-14T09:34:57;4.10;;;1.23;;
71965;SDS011;59836;52.132;5.442;2023-06-14T09:37:28;2.38;;;1.45;;
71965;SDS011;59836;52.132;5.442;2023-06-14T09:39:56;2.38;;;1.13;;
71965;SDS011;59836;52.132;5.442;2023-06-14T09:42:23;2.83;;;1.20;;
71965;SDS011;59836;52.132;5.442;2023-06-14T09:44:52;1.63;;;1.20;;
71965;SDS011;59836;52.132;5.442;2023-06-14T09:47:20;2.00;;;1.27;;
71965;SDS011;59836;52.132;5.442;2023-06-14T09:49:48;1.90;;;1.40;;
71965;SDS011;59836;52.132;5.442;2023-06-14T09:52:16;1.98;;;1.20;;
71965;SDS011;59836;52.132;5.442;2023-06-14T09:54:44;2.88;;;1.50;;
71965;SDS011;59836;52.132;5.442;2023-06-14T09:57:22;3.03;;;1.58;;
71965;SDS011;59836;52.132;5.442;2023-06-14T09:59:52;1.93;;;1.50;;
71965;SDS011;59836;52.132;5.442;2023-06-14T10:05:05;2.80;;;1.48;;
71965;SDS011;59836;52.132;5.442;2023-06-14T10:07:35;3.33;;;1.45;;
71965;SDS011;59836;52.132;5.442;2023-06-14T10:10:06;3.55;;;1.25;;
71965;SDS011;59836;52.132;5.442;2023-06-14T10:12:34;2.30;;;1.27;;
71965;SDS011;59836;52.132;5.442;2023-06-14T10:15:00;2.38;;;1.08;;
71965;SDS011;59836;52.132;5.442;2023-06-14T10:17:48;1.70;;;0.98;;
71965;SDS011;59836;52.132;5.442;2023-06-14T10:22:54;2.25;;;1.13;;
71965;SDS011;59836;52.132;5.442;2023-06-14T10:25:28;1.87;;;1.30;;
71965;SDS011;59836;52.132;5.442;2023-06-14T10:28:30;3.15;;;0.93;;
71965;SDS011;59836;52.132;5.442;2023-06-14T10:31:06;1.67;;;1.02;;
71965;SDS011;59836;52.132;5.442;2023-06-14T10:33:48;2.25;;;1.38;;
71965;SDS011;59836;52.132;5.442;2023-06-14T10:39:04;2.80;;;1.20;;
71965;SDS011;59836;52.132;5.442;2023-06-14T10:41:34;2.45;;;1.30;;
71965;SDS011;59836;52.132;5.442;2023-06-14T10:47:05;4.05;;;1.63;;
71965;SDS011;59836;52.132;5.442;2023-06-14T10:49:38;2.47;;;1.10;;
71965;SDS011;59836;52.132;5.442;2023-06-14T10:52:12;2.27;;;1.03;;
71965;SDS011;59836;52.132;5.442;2023-06-14T10:55:01;2.03;;;1.40;;
71965;SDS011;59836;52.132;5.442;2023-06-14T10:57:32;2.40;;;1.30;;
71965;SDS011;59836;52.132;5.442;2023-06-14T11:00:16;3.35;;;1.30;;
71965;SDS011;59836;52.132;5.442;2023-06-14T11:11:02;4.07;;;1.77;;
71965;SDS011;59836;52.132;5.442;2023-06-14T11:13:32;3.47;;;1.10;;
71965;SDS011;59836;52.132;5.442;2023-06-14T11:15:59;3.33;;;1.45;;
71965;SDS011;59836;52.132;5.442;2023-06-14T11:18:26;1.60;;;1.30;;
71965;SDS011;59836;52.132;5.442;2023-06-14T11:20:54;1.83;;;1.27;;
71965;SDS011;59836;52.132;5.442;2023-06-14T11:23:21;1.77;;;1.23;;
71965;SDS011;59836;52.132;5.442;2023-06-14T11:25:52;5.85;;;1.25;;
71965;SDS011;59836;52.132;5.442;2023-06-14T11:28:18;1.95;;;1.40;;
71965;SDS011;59836;52.132;5.442;2023-06-14T11:30:49;2.50;;;1.03;;
71965;SDS011;59836;52.132;5.442;2023-06-14T11:33:29;2.28;;;1.10;;
71965;SDS011;59836;52.132;5.442;2023-06-14T11:35:56;1.80;;;1.30;;
71965;SDS011;59836;52.132;5.442;2023-06-14T11:38:22;1.83;;;1.38;;
71965;SDS011;59836;52.132;5.442;2023-06-14T11:40:49;1.88;;;1.40;;
71965;SDS011;59836;52.132;5.442;2023-06-14T11:43:16;1.57;;;1.47;;
71965;SDS011;59836;52.132;5.442;2023-06-14T11:45:43;3.17;;;1.25;;
71965;SDS011;59836;52.132;5.442;2023-06-14T11:48:22;2.20;;;1.50;;
71965;SDS011;59836;52.132;5.442;2023-06-14T11:50:49;2.13;;;1.30;;
71965;SDS011;59836;52.132;5.442;2023-06-14T11:53:16;7.38;;;1.60;;
71965;SDS011;59836;52.132;5.442;2023-06-14T11:55:43;1.93;;;1.37;;
71965;SDS011;59836;52.132;5.442;2023-06-14T11:58:11;3.92;;;2.33;;
71965;SDS011;59836;52.132;5.442;2023-06-14T12:00:38;3.35;;;1.50;;
71965;SDS011;59836;52.132;5.442;2023-06-14T12:03:04;2.70;;;1.25;;
71965;SDS011;59836;52.132;5.442;2023-06-14T12:05:33;3.05;;;1.55;;
71965;SDS011;59836;52.132;5.442;2023-06-14T12:08:02;3.43;;;1.30;;
71965;SDS011;59836;52.132;5.442;2023-06-14T12:10:29;3.08;;;1.20;;
71965;SDS011;59836;52.132;5.442;2023-06-14T12:12:57;3.05;;;1.20;;
71965;SDS011;59836;52.132;5.442;2023-06-14T12:15:24;2.22;;;1.40;;
71965;SDS011;59836;52.132;5.442;2023-06-14T12:17:55;2.30;;;1.40;;
71965;SDS011;59836;52.132;5.442;2023-06-14T12:20:22;1.90;;;1.50;;
71965;SDS011;59836;52.132;5.442;2023-06-14T12:22:53;2.92;;;1.33;;
71965;SDS011;59836;52.132;5.442;2023-06-14T12:25:26;2.22;;;1.10;;
71965;SDS011;59836;52.132;5.442;2023-06-14T12:28:06;4.35;;;1.45;;
71965;SDS011;59836;52.132;5.442;2023-06-14T12:30:36;2.00;;;1.42;;
71965;SDS011;59836;52.132;5.442;2023-06-14T12:33:04;3.97;;;1.20;;
71965;SDS011;59836;52.132;5.442;2023-06-14T12:35:32;4.18;;;1.20;;
71965;SDS011;59836;52.132;5.442;2023-06-14T12:38:01;3.67;;;1.67;;
71965;SDS011;59836;52.132;5.442;2023-06-14T12:40:27;2.50;;;1.30;;
71965;SDS011;59836;52.132;5.442;2023-06-14T12:42:54;2.80;;;1.52;;
71965;SDS011;59836;52.132;5.442;2023-06-14T12:45:20;2.00;;;1.30;;
71965;SDS011;59836;52.132;5.442;2023-06-14T12:47:47;1.95;;;1.30;;
71965;SDS011;59836;52.132;5.442;2023-06-14T12:50:13;4.47;;;1.20;;
71965;SDS011;59836;52.132;5.442;2023-06-14T12:52:43;2.40;;;1.30;;
71965;SDS011;59836;52.132;5.442;2023-06-14T12:55:10;5.90;;;1.23;;
71965;SDS011;59836;52.132;5.442;2023-06-14T12:57:36;3.20;;;1.10;;
71965;SDS011;59836;52.132;5.442;2023-06-14T13:00:04;2.38;;;1.20;;
71965;SDS011;59836;52.132;5.442;2023-06-14T13:02:32;2.85;;;1.50;;
71965;SDS011;59836;52.132;5.442;2023-06-14T13:04:59;2.85;;;1.20;;
71965;SDS011;59836;52.132;5.442;2023-06-14T13:07:26;1.60;;;1.08;;
71965;SDS011;59836;52.132;5.442;2023-06-14T13:09:53;10.57;;;1.77;;
71965;SDS011;59836;52.132;5.442;2023-06-14T13:12:19;2.42;;;1.27;;
71965;SDS011;59836;52.132;5.442;2023-06-14T13:14:46;2.10;;;1.33;;
71965;SDS011;59836;52.132;5.442;2023-06-14T13:17:12;2.00;;;1.50;;
71965;SDS011;59836;52.132;5.442;2023-06-14T13:19:39;4.72;;;1.20;;
71965;SDS011;59836;52.132;5.442;2023-06-14T13:22:05;2.47;;;1.23;;
71965;SDS011;59836;52.132;5.442;2023-06-14T13:24:32;2.08;;;1.05;;
71965;SDS011;59836;52.132;5.442;2023-06-14T13:26:58;2.15;;;1.25;;
71965;SDS011;59836;52.132;5.442;2023-06-14T13:29:25;2.15;;;1.17;;
71965;SDS011;59836;52.132;5.442;2023-06-14T13:31:52;1.52;;;1.35;;
71965;SDS011;59836;52.132;5.442;2023-06-14T13:34:19;2.03;;;1.20;;
71965;SDS011;59836;52.132;5.442;2023-06-14T13:36:46;2.33;;;1.48;;
71965;SDS011;59836;52.132;5.442;2023-06-14T13:39:13;2.78;;;1.50;;
71965;SDS011;59836;52.132;5.442;2023-06-14T13:41:40;3.38;;;1.48;;
71965;SDS011;59836;52.132;5.442;2023-06-14T13:44:06;5.00;;;1.45;;
71965;SDS011;59836;52.132;5.442;2023-06-14T13:46:32;3.57;;;1.50;;
71965;SDS011;59836;52.132;5.442;2023-06-14T13:48:59;2.15;;;1.40;;
71965;SDS011;59836;52.132;5.442;2023-06-14T13:51:27;2.70;;;1.30;;
71965;SDS011;59836;52.132;5.442;2023-06-14T13:53:53;2.03;;;1.33;;
71965;SDS011;59836;52.132;5.442;2023-06-14T13:56:21;3.25;;;1.35;;
71965;SDS011;59836;52.132;5.442;2023-06-14T13:58:50;2.17;;;1.30;;
71965;SDS011;59836;52.132;5.442;2023-06-14T14:01:18;1.88;;;1.60;;
71965;SDS011;59836;52.132;5.442;2023-06-14T14:03:46;1.60;;;1.42;;
71965;SDS011;59836;52.132;5.442;2023-06-14T14:06:14;2.65;;;1.58;;
71965;SDS011;59836;52.132;5.442;2023-06-14T14:08:40;2.38;;;1.33;;
71965;SDS011;59836;52.132;5.442;2023-06-14T14:11:07;3.00;;;1.20;;
71965;SDS011;59836;52.132;5.442;2023-06-14T14:13:35;2.10;;;1.15;;
71965;SDS011;59836;52.132;5.442;2023-06-14T14:16:02;3.15;;;1.25;;
71965;SDS011;59836;52.132;5.442;2023-06-14T14:18:29;1.52;;;0.95;;
71965;SDS011;59836;52.132;5.442;2023-06-14T14:20:57;3.67;;;1.30;;
71965;SDS011;59836;52.132;5.442;2023-06-14T14:23:24;2.07;;;1.20;;
71965;SDS011;59836;52.132;5.442;2023-06-14T14:25:51;3.75;;;1.30;;
71965;SDS011;59836;52.132;5.442;2023-06-14T14:28:17;2.05;;;1.30;;
71965;SDS011;59836;52.132;5.442;2023-06-14T14:30:46;5.22;;;1.30;;
71965;SDS011;59836;52.132;5.442;2023-06-14T14:33:13;2.67;;;1.33;;
71965;SDS011;59836;52.132;5.442;2023-06-14T14:35:43;2.30;;;1.23;;
71965;SDS011;59836;52.132;5.442;2023-06-14T14:38:13;2.45;;;1.10;;
71965;SDS011;59836;52.132;5.442;2023-06-14T14:40:44;1.55;;;1.20;;
71965;SDS011;59836;52.132;5.442;2023-06-14T14:43:11;2.65;;;1.30;;
71965;SDS011;59836;52.132;5.442;2023-06-14T14:45:37;3.00;;;1.10;;
71965;SDS011;59836;52.132;5.442;2023-06-14T14:48:04;1.80;;;1.23;;
71965;SDS011;59836;52.132;5.442;2023-06-14T14:50:31;2.42;;;1.00;;
71965;SDS011;59836;52.132;5.442;2023-06-14T14:52:59;2.35;;;1.00;;
71965;SDS011;59836;52.132;5.442;2023-06-14T14:55:25;2.15;;;1.15;;
71965;SDS011;59836;52.132;5.442;2023-06-14T14:57:52;2.58;;;1.10;;
71965;SDS011;59836;52.132;5.442;2023-06-14T15:00:18;2.07;;;1.30;;
71965;SDS011;59836;52.132;5.442;2023-06-14T15:02:45;2.20;;;1.15;;
71965;SDS011;59836;52.132;5.442;2023-06-14T15:05:12;2.67;;;1.17;;
71965;SDS011;59836;52.132;5.442;2023-06-14T15:07:38;2.78;;;1.30;;
71965;SDS011;59836;52.132;5.442;2023-06-14T15:10:06;1.38;;;1.02;;
71965;SDS011;59836;52.132;5.442;2023-06-14T15:12:33;1.73;;;1.00;;
71965;SDS011;59836;52.132;5.442;2023-06-14T15:15:00;2.92;;;1.40;;
71965;SDS011;59836;52.132;5.442;2023-06-14T15:17:27;3.10;;;1.05;;